Time;durP1;ratioP1;P1;durP2;ratioP2;P2;SDS_P1;SDS_P2;PMS_P1;PMS_P2;Temp;Humidity;BMP_temperature;BMP_pressure;BME280_temperature;BME280_humidity;BME280_pressure;Samples;Min_cycle;Max_cycle;Signal;HPM_P1;HPM_P2
2021/09/03 00:00:47;;;;;;;1.57;1.40;;;15.10;99.90;;;;;;5065899;28;20215;-75
2021/09/03 00:03:15;;;;;;;2.10;1.60;;;15.10;99.90;;;;;;5063079;28;20227;-75
2021/09/03 00:05:42;;;;;;;1.57;1.47;;;15.10;99.90;;;;;;5062588;28;20203;-75
2021/09/03 00:08:09;;;;;;;3.20;1.87;;;15.10;99.90;;;;;;5060630;28;20211;-75
2021/09/03 00:10:37;;;;;;;1.90;1.50;;;15.10;99.90;;;;;;5069452;28;20202;-75
2021/09/03 00:13:04;;;;;;;1.50;1.40;;;15.10;99.90;;;;;;5060380;28;20243;-75
2021/09/03 00:15:31;;;;;;;1.00;1.00;;;15.10;99.90;;;;;;5069768;28;20201;-75
2021/09/03 00:17:59;;;;;;;1.73;1.63;;;15.10;99.90;;;;;;5060593;28;20198;-74
2021/09/03 00:20:27;;;;;;;2.07;1.63;;;15.10;99.90;;;;;;5061005;28;20254;-75
2021/09/03 00:22:54;;;;;;;1.40;1.30;;;15.10;99.90;;;;;;5066183;28;20227;-75
2021/09/03 00:25:22;;;;;;;1.13;1.10;;;15.10;99.90;;;;;;5069533;28;20234;-75
2021/09/03 00:27:49;;;;;;;1.30;1.20;;;15.10;99.90;;;;;;5068318;28;20321;-75
2021/09/03 00:30:16;;;;;;;1.93;1.50;;;15.10;99.90;;;;;;5070593;28;20208;-75
2021/09/03 00:32:43;;;;;;;2.30;1.47;;;15.10;99.90;;;;;;5069518;28;20203;-74
2021/09/03 00:35:10;;;;;;;1.53;1.43;;;15.10;99.90;;;;;;5070025;28;20204;-75
2021/09/03 00:37:40;;;;;;;1.40;1.30;;;15.20;99.90;;;;;;5067274;28;20204;-75
2021/09/03 00:40:08;;;;;;;1.50;1.40;;;15.10;99.90;;;;;;5060331;28;20262;-75
2021/09/03 00:42:35;;;;;;;1.60;1.50;;;15.10;99.90;;;;;;5061626;28;20227;-74
2021/09/03 00:45:03;;;;;;;1.60;1.50;;;15.10;99.90;;;;;;5062111;28;20194;-75
2021/09/03 00:47:30;;;;;;;1.60;1.50;;;15.30;99.90;;;;;;5063800;28;20247;-75
2021/09/03 00:49:57;;;;;;;1.50;1.40;;;15.10;99.90;;;;;;5058197;28;20198;-74
2021/09/03 00:52:25;;;;;;;1.73;1.60;;;15.10;99.90;;;;;;5069294;28;20192;-74
2021/09/03 00:54:57;;;;;;;1.57;1.47;;;15.20;99.90;;;;;;5061359;28;20222;-74
2021/09/03 00:57:25;;;;;;;1.60;1.50;;;15.20;99.90;;;;;;5056524;28;20639;-74
2021/09/03 00:59:55;;;;;;;1.47;1.37;;;15.20;99.90;;;;;;5063535;28;20191;-74
2021/09/03 01:02:23;;;;;;;1.90;1.60;;;15.10;99.90;;;;;;5069017;28;20223;-75
2021/09/03 01:04:51;;;;;;;1.50;1.40;;;15.20;99.90;;;;;;5069838;28;20191;-75
2021/09/03 01:07:18;;;;;;;1.70;1.60;;;15.20;99.90;;;;;;5059420;28;20223;-75
2021/09/03 01:09:45;;;;;;;1.63;1.53;;;15.20;99.90;;;;;;5058160;28;20212;-75
2021/09/03 01:12:13;;;;;;;1.73;1.63;;;15.20;99.90;;;;;;5068520;28;20698;-75
2021/09/03 01:14:40;;;;;;;1.70;1.60;;;15.40;99.90;;;;;;5058897;28;20549;-75
2021/09/03 01:17:07;;;;;;;1.80;1.70;;;15.10;99.90;;;;;;5057970;28;20270;-75
2021/09/03 01:19:34;;;;;;;1.97;1.70;;;15.10;99.90;;;;;;5069445;28;20652;-75
2021/09/03 01:22:03;;;;;;;2.60;1.80;;;15.20;99.90;;;;;;5056637;28;20215;-75
2021/09/03 01:24:30;;;;;;;1.70;1.60;;;15.20;99.90;;;;;;5053385;28;20215;-75
2021/09/03 01:26:57;;;;;;;1.70;1.60;;;15.20;99.90;;;;;;5067625;28;20197;-75
2021/09/03 01:29:24;;;;;;;1.73;1.63;;;15.10;99.90;;;;;;5066702;28;20192;-74
2021/09/03 01:31:51;;;;;;;1.83;1.50;;;15.20;99.90;;;;;;5067779;28;20687;-75
2021/09/03 01:34:18;;;;;;;1.53;1.43;;;15.20;99.90;;;;;;5068644;28;20846;-74
2021/09/03 01:36:44;;;;;;;2.37;1.90;;;15.20;99.90;;;;;;5068087;28;20190;-74
2021/09/03 01:39:13;;;;;;;1.77;1.67;;;15.20;99.90;;;;;;5064833;28;20212;-74
2021/09/03 01:41:40;;;;;;;1.70;1.60;;;15.20;99.90;;;;;;5065592;28;20211;-75
2021/09/03 01:44:09;;;;;;;2.97;1.67;;;15.00;99.90;;;;;;5065149;28;20204;-75
2021/09/03 01:46:36;;;;;;;2.43;2.07;;;15.20;99.90;;;;;;5066578;28;20215;-75
2021/09/03 01:49:03;;;;;;;2.43;2.17;;;15.20;99.90;;;;;;5059652;28;20203;-75
2021/09/03 01:51:30;;;;;;;1.70;1.60;;;15.20;99.90;;;;;;5067170;28;20695;-75
2021/09/03 01:53:57;;;;;;;2.17;2.00;;;15.20;99.90;;;;;;5061930;28;20675;-75
2021/09/03 01:56:25;;;;;;;1.77;1.67;;;15.20;99.90;;;;;;5067147;28;20247;-75
2021/09/03 01:58:53;;;;;;;1.60;1.50;;;15.20;99.90;;;;;;5060333;28;20212;-74
2021/09/03 02:01:20;;;;;;;2.23;1.97;;;15.20;99.90;;;;;;5062362;28;20215;-75
2021/09/03 02:03:47;;;;;;;2.30;2.00;;;15.20;99.90;;;;;;5062365;28;20702;-75
2021/09/03 02:06:14;;;;;;;2.93;2.40;;;15.20;99.90;;;;;;5068652;28;20206;-75
2021/09/03 02:08:41;;;;;;;3.87;2.20;;;15.20;99.90;;;;;;5060447;28;20301;-74
2021/09/03 02:11:08;;;;;;;2.43;2.23;;;15.70;99.90;;;;;;5065965;28;20198;-75
2021/09/03 02:13:37;;;;;;;2.43;2.23;;;15.30;99.90;;;;;;5066881;28;20230;-76
2021/09/03 02:16:04;;;;;;;3.00;2.20;;;15.30;99.90;;;;;;5063960;28;20200;-75
2021/09/03 02:18:31;;;;;;;2.57;2.37;;;15.30;99.90;;;;;;5057700;28;20307;-75
2021/09/03 02:20:58;;;;;;;2.57;2.03;;;15.30;99.90;;;;;;5063681;28;20567;-76
2021/09/03 02:23:25;;;;;;;2.97;2.50;;;15.30;99.90;;;;;;5054144;28;20649;-76
2021/09/03 02:25:52;;;;;;;4.03;2.60;;;15.30;99.90;;;;;;5060497;28;20279;-75
2021/09/03 02:28:19;;;;;;;2.70;2.50;;;15.30;99.90;;;;;;5067705;28;20193;-75
2021/09/03 02:30:48;;;;;;;2.73;2.47;;;15.30;99.90;;;;;;5061636;28;20203;-75
2021/09/03 02:33:15;;;;;;;3.67;2.97;;;15.40;99.90;;;;;;5058006;28;20552;-75
2021/09/03 02:35:43;;;;;;;3.93;2.93;;;15.30;99.90;;;;;;5047763;28;20207;-75
2021/09/03 02:38:10;;;;;;;3.00;2.20;;;15.40;99.90;;;;;;5065668;28;20207;-75
2021/09/03 02:40:37;;;;;;;3.60;2.80;;;15.40;99.90;;;;;;5067860;28;20210;-75
2021/09/03 02:43:04;;;;;;;5.97;3.83;;;15.40;99.90;;;;;;5064324;28;20306;-75
2021/09/03 02:45:31;;;;;;;4.33;2.93;;;15.40;99.90;;;;;;5071778;28;20276;-76
2021/09/03 02:48:01;;;;;;;2.97;2.67;;;15.40;99.90;;;;;;5062475;28;20230;-75
2021/09/03 02:50:28;;;;;;;6.80;3.27;;;15.40;99.90;;;;;;5059380;28;20789;-75
2021/09/03 02:52:56;;;;;;;4.27;2.77;;;15.30;99.90;;;;;;5053317;28;20195;-75
2021/09/03 02:55:23;;;;;;;4.23;3.20;;;15.40;99.90;;;;;;5071311;28;20309;-75
2021/09/03 02:57:50;;;;;;;5.37;3.80;;;15.40;99.90;;;;;;5070036;28;20223;-75
2021/09/03 03:00:18;;;;;;;5.17;3.20;;;15.30;99.90;;;;;;5059292;28;20684;-76
2021/09/03 03:02:45;;;;;;;4.47;3.57;;;15.30;99.90;;;;;;5059726;28;20212;-74
2021/09/03 03:05:13;;;;;;;3.80;2.80;;;15.30;99.90;;;;;;5054745;28;20584;-75
2021/09/03 03:07:40;;;;;;;4.43;3.20;;;15.50;99.90;;;;;;5051651;28;20479;-75
2021/09/03 03:10:08;;;;;;;3.07;2.77;;;15.30;99.90;;;;;;5057957;28;20199;-75
2021/09/03 03:12:36;;;;;;;6.60;4.23;;;15.30;99.90;;;;;;5068927;28;20635;-75
2021/09/03 03:15:03;;;;;;;7.00;4.93;;;15.30;99.90;;;;;;5071730;28;20206;-75
2021/09/03 03:17:30;;;;;;;4.27;3.67;;;15.30;99.90;;;;;;5070510;28;20200;-75
2021/09/03 03:19:57;;;;;;;5.63;3.00;;;15.30;99.90;;;;;;5071011;28;20718;-76
2021/09/03 03:22:25;;;;;;;4.83;3.40;;;15.50;99.90;;;;;;5068869;28;20218;-75
2021/09/03 03:24:52;;;;;;;4.00;3.30;;;15.20;99.90;;;;;;5069639;28;20662;-76
2021/09/03 03:27:19;;;;;;;6.10;4.07;;;15.30;99.90;;;;;;5067941;28;20762;-75
2021/09/03 03:29:46;;;;;;;5.20;3.60;;;15.30;99.90;;;;;;5071048;28;20259;-76
2021/09/03 03:32:13;;;;;;;7.90;4.17;;;15.20;99.90;;;;;;5071121;28;20198;-75
2021/09/03 03:34:40;;;;;;;4.60;3.20;;;15.30;99.90;;;;;;5071100;28;20205;-75
2021/09/03 03:37:07;;;;;;;5.17;2.90;;;15.30;99.90;;;;;;5062077;28;20688;-75
2021/09/03 03:39:35;;;;;;;5.50;4.00;;;15.30;99.90;;;;;;5068911;28;20193;-74
2021/09/03 03:42:03;;;;;;;5.00;3.60;;;15.30;99.90;;;;;;5070477;28;20299;-75
2021/09/03 03:44:30;;;;;;;5.87;3.40;;;15.20;99.90;;;;;;5070458;28;20707;-75
2021/09/03 03:46:56;;;;;;;6.80;4.47;;;15.30;99.90;;;;;;5069262;28;20215;-74
2021/09/03 03:49:24;;;;;;;6.00;4.00;;;15.20;99.90;;;;;;5069687;28;20198;-75
2021/09/03 03:51:51;;;;;;;5.73;4.37;;;15.20;99.90;;;;;;5069567;28;20213;-75
2021/09/03 03:54:18;;;;;;;5.63;3.73;;;15.20;99.90;;;;;;5055503;28;20211;-75
2021/09/03 03:56:46;;;;;;;4.13;3.03;;;15.20;99.90;;;;;;5061962;28;20227;-75
2021/09/03 03:59:14;;;;;;;3.50;2.90;;;15.20;99.90;;;;;;5062435;28;20210;-74
2021/09/03 04:01:40;;;;;;;5.67;3.67;;;15.20;99.90;;;;;;5067825;28;20203;-75
2021/09/03 04:04:07;;;;;;;5.63;3.90;;;15.20;99.90;;;;;;5057895;28;20227;-75
2021/09/03 04:06:34;;;;;;;4.13;3.37;;;15.20;99.90;;;;;;5070078;28;20268;-75
2021/09/03 04:09:01;;;;;;;5.20;3.20;;;15.30;99.90;;;;;;5067457;28;20198;-75
2021/09/03 04:11:28;;;;;;;5.57;3.50;;;15.30;99.90;;;;;;5069374;28;20201;-75
2021/09/03 04:13:57;;;;;;;6.60;4.33;;;15.30;99.90;;;;;;5070226;28;20243;-75
2021/09/03 04:16:24;;;;;;;7.17;3.97;;;15.30;99.90;;;;;;5069366;28;20196;-75
2021/09/03 04:18:51;;;;;;;5.63;3.90;;;15.20;99.90;;;;;;5061391;28;20192;-75
2021/09/03 04:21:18;;;;;;;6.20;3.87;;;15.30;99.90;;;;;;5053963;28;20220;-75
2021/09/03 04:23:44;;;;;;;8.57;4.07;;;15.30;99.90;;;;;;5052814;28;20233;-75
2021/09/03 04:26:11;;;;;;;5.63;4.30;;;15.40;99.90;;;;;;5063331;28;20599;-75
2021/09/03 04:28:38;;;;;;;4.37;3.40;;;15.40;99.90;;;;;;5070102;28;20208;-74
2021/09/03 04:31:07;;;;;;;3.77;3.00;;;15.40;99.90;;;;;;5067526;28;20218;-75
2021/09/03 04:33:34;;;;;;;6.07;4.17;;;15.40;99.90;;;;;;5070614;28;20284;-75
2021/09/03 04:36:01;;;;;;;6.70;4.00;;;15.50;99.90;;;;;;5067852;28;20781;-75
2021/09/03 04:38:28;;;;;;;4.23;3.60;;;15.40;99.90;;;;;;5069279;28;20286;-75
2021/09/03 04:40:56;;;;;;;3.37;3.03;;;16.00;99.90;;;;;;5064595;28;20204;-74
2021/09/03 04:43:23;;;;;;;4.03;3.30;;;15.60;99.90;;;;;;5070245;28;20730;-74
2021/09/03 04:45:50;;;;;;;3.10;2.73;;;15.80;99.90;;;;;;5068822;28;20199;-75
2021/09/03 04:48:18;;;;;;;4.93;3.17;;;15.70;99.90;;;;;;5057841;28;20196;-76
2021/09/03 04:50:45;;;;;;;3.73;3.03;;;15.70;99.90;;;;;;5065322;28;20203;-76
2021/09/03 04:53:12;;;;;;;3.90;3.07;;;15.60;99.90;;;;;;5054681;28;20204;-76
2021/09/03 04:55:40;;;;;;;5.07;3.07;;;15.70;99.90;;;;;;5064299;28;20660;-76
2021/09/03 04:58:07;;;;;;;4.13;3.03;;;15.70;99.90;;;;;;5075546;28;20219;-75
2021/09/03 05:00:34;;;;;;;5.20;3.57;;;15.80;99.90;;;;;;5064360;28;20199;-75
2021/09/03 05:03:01;;;;;;;4.07;3.20;;;15.80;99.90;;;;;;5054764;28;20714;-76
2021/09/03 05:05:29;;;;;;;3.53;2.90;;;15.80;99.90;;;;;;5061920;28;20257;-76
2021/09/03 05:07:56;;;;;;;4.63;3.20;;;15.90;99.90;;;;;;5068755;28;20197;-75
2021/09/03 05:10:23;;;;;;;6.40;4.13;;;15.90;99.90;;;;;;5062958;28;20198;-75
2021/09/03 05:12:50;;;;;;;6.43;3.93;;;16.00;99.90;;;;;;5051427;28;20240;-75
2021/09/03 05:15:19;;;;;;;7.30;4.37;;;16.10;99.90;;;;;;5059382;28;20285;-75
2021/09/03 05:17:50;;;;;;;9.23;4.10;;;16.10;99.90;;;;;;5066797;28;20197;-75
2021/09/03 05:20:17;;;;;;;5.67;3.60;;;16.20;99.90;;;;;;5059718;28;20728;-76
2021/09/03 05:22:46;;;;;;;3.53;3.20;;;16.30;99.90;;;;;;5056564;28;20295;-76
2021/09/03 05:25:14;;;;;;;7.83;3.60;;;16.40;99.90;;;;;;5056798;28;20232;-76
2021/09/03 05:27:41;;;;;;;5.37;3.63;;;16.40;99.90;;;;;;5068179;28;20215;-76
2021/09/03 05:30:09;;;;;;;4.47;3.03;;;16.50;99.90;;;;;;5069021;28;20270;-76
2021/09/03 05:32:37;;;;;;;3.50;3.20;;;16.60;99.90;;;;;;5065808;28;20201;-76
2021/09/03 05:35:05;;;;;;;3.57;3.20;;;16.70;99.90;;;;;;5069344;28;20203;-75
2021/09/03 05:37:32;;;;;;;6.10;3.60;;;16.80;99.90;;;;;;5064307;28;20213;-75
2021/09/03 05:40:01;;;;;;;4.53;3.17;;;16.90;99.90;;;;;;5068290;28;20200;-75
2021/09/03 05:42:28;;;;;;;4.27;2.93;;;16.90;99.90;;;;;;5067222;28;20637;-75
2021/09/03 05:44:55;;;;;;;5.87;3.50;;;17.00;99.90;;;;;;5068760;28;20209;-74
2021/09/03 05:47:23;;;;;;;7.33;3.90;;;17.10;99.90;;;;;;5066540;28;20211;-74
2021/09/03 05:49:50;;;;;;;6.83;3.47;;;17.20;99.90;;;;;;5052780;28;20194;-76
2021/09/03 05:52:17;;;;;;;5.17;3.53;;;17.30;99.90;;;;;;5059596;28;20637;-76
2021/09/03 05:54:44;;;;;;;4.93;3.60;;;18.00;99.90;;;;;;5056610;28;20212;-76
2021/09/03 05:57:12;;;;;;;3.40;3.10;;;18.90;99.90;;;;;;5060858;28;20209;-76
2021/09/03 05:59:39;;;;;;;3.93;2.87;;;19.90;99.90;;;;;;5054551;28;20224;-75
2021/09/03 06:02:06;;;;;;;3.03;2.72;;;20.70;99.90;;;;;;5064314;28;20205;-74
2021/09/03 06:04:33;;;;;;;4.68;2.78;;;21.20;99.90;;;;;;5066449;28;20222;-76
2021/09/03 06:07:00;;;;;;;4.30;2.80;;;21.50;99.90;;;;;;5067095;28;20205;-74
2021/09/03 06:09:27;;;;;;;3.28;2.97;;;21.60;99.90;;;;;;5065389;28;20213;-75
2021/09/03 06:11:55;;;;;;;4.05;2.95;;;21.80;99.90;;;;;;5060949;28;20593;-74
2021/09/03 06:14:23;;;;;;;5.63;3.13;;;22.00;99.90;;;;;;5051743;28;20476;-75
2021/09/03 06:16:50;;;;;;;7.45;3.20;;;22.20;99.90;;;;;;5049240;28;20287;-75
2021/09/03 06:19:17;;;;;;;3.53;2.92;;;22.30;99.90;;;;;;5063980;28;20197;-74
2021/09/03 06:21:44;;;;;;;5.05;3.20;;;22.50;99.90;;;;;;5052120;28;20209;-74
2021/09/03 06:26:52;;;;;;;8.15;3.45;;;23.00;99.90;;;;;;5056865;28;20233;-75
2021/09/03 06:32:01;;;;;;;7.57;3.45;;;23.70;97.50;;;;;;5064352;28;20200;-74
2021/09/03 06:34:28;;;;;;;5.95;3.50;;;24.30;96.70;;;;;;5055867;28;20228;-75
2021/09/03 06:36:55;;;;;;;5.70;3.35;;;24.70;95.30;;;;;;5063647;28;20709;-75
2021/09/03 06:39:22;;;;;;;2.97;2.78;;;25.30;94.00;;;;;;5062817;28;20198;-74
2021/09/03 06:41:49;;;;;;;3.20;2.90;;;26.10;92.60;;;;;;5058575;28;20190;-75
2021/09/03 06:44:16;;;;;;;4.85;2.90;;;26.90;90.10;;;;;;5059810;28;20241;-75
2021/09/03 06:46:43;;;;;;;3.25;2.78;;;27.90;85.50;;;;;;5060569;28;20920;-75
2021/09/03 06:49:12;;;;;;;5.35;2.45;;;29.30;80.90;;;;;;5057599;28;20201;-75
2021/09/03 06:51:39;;;;;;;3.10;2.80;;;30.80;74.90;;;;;;5060031;28;20455;-75
2021/09/03 06:54:06;;;;;;;4.10;2.92;;;32.30;66.90;;;;;;5064398;28;20190;-76
2021/09/03 06:56:33;;;;;;;3.53;3.03;;;33.70;59.70;;;;;;5064814;28;20212;-76
2021/09/03 06:59:00;;;;;;;2.80;2.60;;;34.70;55.50;;;;;;5064497;28;20190;-75
2021/09/03 07:01:27;;;;;;;3.03;2.75;;;35.90;53.50;;;;;;5065246;28;20564;-76
2021/09/03 07:03:54;;;;;;;4.13;3.05;;;37.00;49.10;;;;;;5057643;28;20221;-76
2021/09/03 07:06:23;;;;;;;4.03;3.63;;;37.90;47.50;;;;;;5066315;28;20193;-77
2021/09/03 07:08:50;;;;;;;3.83;2.97;;;38.80;44.80;;;;;;5065279;28;20194;-76
2021/09/03 07:11:16;;;;;;;3.28;2.97;;;39.50;42.40;;;;;;5057042;28;20748;-77
2021/09/03 07:13:43;;;;;;;3.45;3.05;;;39.90;41.30;;;;;;5064521;28;20508;-76
2021/09/03 07:16:11;;;;;;;3.88;3.35;;;40.40;39.70;;;;;;5064940;28;20666;-76
2021/09/03 07:18:38;;;;;;;3.97;3.10;;;40.80;38.30;;;;;;5060284;28;20209;-77
2021/09/03 07:21:05;;;;;;;4.15;3.53;;;41.40;38.00;;;;;;5055207;28;20189;-77
2021/09/03 07:23:33;;;;;;;3.33;3.10;;;41.80;36.50;;;;;;5045547;28;20220;-77
2021/09/03 07:26:01;;;;;;;3.90;3.60;;;42.30;35.30;;;;;;5063482;28;20201;-78
2021/09/03 07:28:29;;;;;;;3.45;3.25;;;42.40;34.30;;;;;;5062120;28;20211;-77
2021/09/03 07:30:56;;;;;;;3.47;3.20;;;42.20;33.60;;;;;;5067167;28;20204;-77
2021/09/03 07:33:23;;;;;;;4.00;3.67;;;42.10;33.50;;;;;;5067482;28;20526;-77
2021/09/03 07:35:50;;;;;;;3.92;3.67;;;42.10;33.00;;;;;;5063571;28;20198;-77
2021/09/03 07:38:17;;;;;;;4.07;3.78;;;42.00;33.10;;;;;;5058921;28;20201;-77
2021/09/03 07:40:46;;;;;;;4.35;3.95;;;42.00;32.00;;;;;;5067331;28;20199;-78
2021/09/03 07:43:13;;;;;;;4.30;3.90;;;41.80;31.80;;;;;;5064271;28;20200;-77
2021/09/03 07:45:41;;;;;;;3.75;3.45;;;41.80;31.70;;;;;;5058075;28;20683;-77
2021/09/03 07:48:08;;;;;;;3.60;3.40;;;42.00;31.80;;;;;;5062210;28;20200;-77
2021/09/03 07:50:35;;;;;;;4.47;4.07;;;42.20;31.50;;;;;;5066656;28;20556;-79
2021/09/03 07:53:04;;;;;;;3.75;3.40;;;42.10;30.60;;;;;;5056858;28;20205;-75
2021/09/03 07:55:31;;;;;;;4.53;4.13;;;41.90;30.70;;;;;;5060388;28;20537;-77
2021/09/03 07:58:00;;;;;;;6.07;4.10;;;42.00;30.30;;;;;;5067244;28;20894;-76
2021/09/03 08:00:27;;;;;;;5.07;3.92;;;41.60;29.90;;;;;;5057778;28;20209;-76
2021/09/03 08:02:54;;;;;;;5.03;3.80;;;41.20;30.10;;;;;;5064658;28;20710;-75
2021/09/03 08:05:21;;;;;;;4.45;4.05;;;40.20;30.60;;;;;;5064428;28;20219;-70
2021/09/03 08:07:48;;;;;;;4.20;3.80;;;39.00;31.60;;;;;;5055970;28;20205;-71
2021/09/03 08:10:18;;;;;;;4.80;4.40;;;38.40;32.60;;;;;;5054611;28;20204;-71
2021/09/03 08:12:45;;;;;;;4.32;3.40;;;38.20;32.90;;;;;;5065647;28;20239;-70
2021/09/03 08:15:16;;;;;;;4.30;3.90;;;38.50;33.10;;;;;;5058940;28;20235;-71
2021/09/03 08:17:43;;;;;;;4.43;4.07;;;39.30;32.90;;;;;;5055075;28;20257;-70
2021/09/03 08:20:13;;;;;;;4.38;4.03;;;40.20;32.30;;;;;;5054981;28;20196;-71
2021/09/03 08:22:41;;;;;;;5.32;4.35;;;41.20;31.40;;;;;;5061556;28;20217;-71
2021/09/03 08:25:09;;;;;;;4.78;4.30;;;41.80;30.30;;;;;;5065371;28;20465;-70
2021/09/03 08:27:37;;;;;;;5.50;4.35;;;42.00;30.00;;;;;;5065506;28;20637;-70
2021/09/03 08:30:06;;;;;;;4.68;4.28;;;41.60;29.70;;;;;;5066863;28;20669;-71
2021/09/03 08:32:34;;;;;;;4.00;3.70;;;40.40;30.60;;;;;;5058642;28;20231;-70
2021/09/03 08:35:01;;;;;;;6.32;5.00;;;38.90;31.90;;;;;;5059084;28;20217;-70
2021/09/03 08:37:28;;;;;;;5.45;3.90;;;37.40;33.20;;;;;;5065886;28;20415;-72
2021/09/03 08:39:56;;;;;;;4.68;4.05;;;36.60;34.60;;;;;;5075473;28;20215;-72
2021/09/03 08:42:23;;;;;;;7.25;4.70;;;36.40;35.10;;;;;;5060506;28;20326;-72
2021/09/03 08:44:51;;;;;;;4.53;4.13;;;36.70;35.70;;;;;;5066480;28;20219;-72
2021/09/03 08:47:20;;;;;;;5.05;4.03;;;35.90;35.30;;;;;;5066963;28;20550;-73
2021/09/03 08:49:50;;;;;;;5.85;4.50;;;35.10;36.30;;;;;;5059665;28;20209;-73
2021/09/03 08:52:17;;;;;;;4.00;3.60;;;34.10;37.20;;;;;;5055897;28;20222;-75
2021/09/03 08:54:45;;;;;;;4.57;4.10;;;33.30;38.30;;;;;;5054693;28;20272;-72
2021/09/03 08:57:14;;;;;;;5.95;3.80;;;32.70;39.30;;;;;;5057134;28;20625;-71
2021/09/03 08:59:41;;;;;;;3.38;3.17;;;31.80;40.40;;;;;;5067161;28;20287;-71
2021/09/03 09:02:12;;;;;;;5.65;3.45;;;31.10;41.50;;;;;;5053633;28;20293;-70
2021/09/03 09:04:41;;;;;;;3.40;3.20;;;30.40;42.40;;;;;;5060170;28;20511;-71
2021/09/03 09:07:10;;;;;;;3.92;3.38;;;29.90;43.70;;;;;;5061466;28;20201;-69
2021/09/03 09:09:40;;;;;;;3.33;3.03;;;29.20;44.40;;;;;;5056197;28;20198;-69
2021/09/03 09:12:11;;;;;;;5.20;3.92;;;28.70;45.40;;;;;;5080799;28;20585;-70
2021/09/03 09:15:02;;;;;;;4.10;3.70;;;28.20;46.40;;;;;;5054424;28;20257;-70
2021/09/03 09:17:34;;;;;;;3.17;2.97;;;27.60;47.10;;;;;;5060897;28;20209;-70
2021/09/03 09:20:01;;;;;;;4.00;3.60;;;27.20;47.80;;;;;;5054475;28;20208;-70
2021/09/03 09:22:47;;;;;;;5.90;3.83;;;26.80;48.60;;;;;;5059432;28;20510;-70
2021/09/03 09:25:24;;;;;;;5.50;5.00;;;26.50;49.20;;;;;;5056768;28;21010;-71
2021/09/03 09:27:51;;;;;;;5.10;4.32;;;26.40;50.20;;;;;;5066509;28;20208;-70
2021/09/03 09:30:25;;;;;;;4.28;3.90;;;26.20;50.50;;;;;;5054628;28;20661;-71
2021/09/03 09:33:12;;;;;;;4.63;4.18;;;26.00;50.80;;;;;;5067376;28;20607;-71
2021/09/03 09:35:43;;;;;;;3.63;3.13;;;25.70;51.50;;;;;;5065652;28;20197;-72
2021/09/03 09:38:12;;;;;;;3.88;3.33;;;25.50;52.00;;;;;;5080819;28;20205;-70
2021/09/03 09:40:47;;;;;;;6.40;4.47;;;25.30;52.40;;;;;;5057367;28;20244;-70
2021/09/03 09:43:28;;;;;;;5.10;4.60;;;25.30;53.50;;;;;;5063989;28;20204;-70
2021/09/03 09:46:20;;;;;;;4.82;4.30;;;25.20;53.30;;;;;;5063314;28;20225;-70
2021/09/03 09:49:02;;;;;;;6.82;5.15;;;25.00;54.10;;;;;;5061585;28;20201;-70
2021/09/03 09:51:32;;;;;;;7.03;4.82;;;24.70;54.40;;;;;;5065878;28;20208;-70
2021/09/03 09:54:04;;;;;;;5.20;4.10;;;24.60;55.10;;;;;;5061735;28;20597;-69
2021/09/03 09:56:33;;;;;;;6.20;4.10;;;24.50;55.60;;;;;;5059004;28;20284;-70
2021/09/03 09:59:02;;;;;;;3.65;3.38;;;24.30;55.90;;;;;;5059234;28;20202;-71
2021/09/03 10:01:32;;;;;;;4.65;3.72;;;24.20;56.40;;;;;;5054644;28;20202;-70
2021/09/03 10:04:01;;;;;;;4.85;3.65;;;24.10;56.80;;;;;;5065506;28;20220;-70
2021/09/03 10:06:30;;;;;;;5.28;3.60;;;24.00;57.20;;;;;;5064703;28;20213;-70
2021/09/03 10:08:59;;;;;;;3.45;3.15;;;23.90;57.70;;;;;;5057531;28;20209;-70
2021/09/03 10:11:28;;;;;;;4.38;3.10;;;23.70;58.00;;;;;;5066509;28;20209;-71
2021/09/03 10:13:55;;;;;;;8.63;5.30;;;23.60;58.60;;;;;;5054666;28;20241;-70
2021/09/03 10:16:22;;;;;;;7.18;5.00;;;23.40;60.00;;;;;;5057710;28;20311;-71
2021/09/03 10:18:54;;;;;;;6.13;4.40;;;23.00;61.10;;;;;;5062043;28;20292;-71
2021/09/03 10:21:22;;;;;;;6.88;4.47;;;22.70;61.70;;;;;;5068890;28;20279;-71
2021/09/03 10:24:02;;;;;;;7.00;4.60;;;22.60;62.90;;;;;;5052248;28;20193;-70
2021/09/03 10:26:33;;;;;;;7.38;4.50;;;22.40;63.90;;;;;;5051837;28;20208;-69
2021/09/03 10:29:24;;;;;;;5.05;3.83;;;22.40;64.70;;;;;;5059707;28;20197;-69
2021/09/03 10:32:22;;;;;;;6.53;4.18;;;22.30;65.10;;;;;;5061055;28;20210;-71
2021/09/03 10:35:18;;;;;;;7.05;4.90;;;22.40;65.70;;;;;;5061148;28;20276;-70
2021/09/03 10:37:45;;;;;;;6.65;4.55;;;22.40;66.40;;;;;;5065380;28;20852;-69
2021/09/03 10:40:19;;;;;;;7.05;4.22;;;22.20;66.90;;;;;;5065645;28;20201;-70
2021/09/03 10:43:05;;;;;;;5.03;3.78;;;22.20;67.50;;;;;;5059371;28;20228;-70
2021/09/03 10:45:43;;;;;;;6.43;3.88;;;22.30;68.10;;;;;;5057379;28;20227;-70
2021/09/03 10:48:15;;;;;;;5.53;3.75;;;22.20;68.40;;;;;;5061840;28;20197;-70
2021/09/03 10:50:52;;;;;;;4.88;3.88;;;22.30;69.10;;;;;;5065670;28;20327;-70
2021/09/03 10:53:31;;;;;;;6.70;4.22;;;22.40;69.40;;;;;;5047156;28;20275;-70
2021/09/03 10:56:22;;;;;;;6.13;4.50;;;22.40;69.80;;;;;;5061537;28;20278;-70
2021/09/03 10:58:58;;;;;;;6.25;5.07;;;22.50;70.50;;;;;;5063545;28;20201;-69
2021/09/03 11:02:02;;;;;;;5.80;4.80;;;22.70;70.50;;;;;;5056491;28;20209;-70
2021/09/03 11:04:29;;;;;;;4.97;4.47;;;22.90;70.40;;;;;;5074827;28;20507;-70
2021/09/03 11:07:07;;;;;;;4.28;3.88;;;23.10;70.90;;;;;;5064647;28;20185;-70
2021/09/03 11:09:35;;;;;;;5.65;4.28;;;23.30;70.70;;;;;;5058495;28;20208;-70
2021/09/03 11:12:07;;;;;;;6.60;4.93;;;23.50;70.40;;;;;;5065780;28;20192;-70
2021/09/03 11:14:36;;;;;;;6.75;4.97;;;23.90;70.20;;;;;;5068208;28;20825;-70
2021/09/03 11:17:04;;;;;;;6.90;5.18;;;24.40;68.90;;;;;;5061826;28;20252;-70
2021/09/03 11:19:33;;;;;;;4.93;4.30;;;24.60;67.80;;;;;;5068797;28;20715;-70
2021/09/03 11:22:04;;;;;;;6.35;4.78;;;24.70;67.20;;;;;;5065853;28;20200;-70
2021/09/03 11:24:33;;;;;;;7.68;5.25;;;24.70;66.40;;;;;;5066682;28;20438;-70
2021/09/03 11:27:05;;;;;;;5.93;4.90;;;24.70;66.10;;;;;;5067937;28;20197;-70
2021/09/03 11:29:35;;;;;;;6.28;4.43;;;24.60;65.80;;;;;;5063717;28;20360;-69
2021/09/03 11:32:06;;;;;;;6.13;4.45;;;24.60;65.50;;;;;;5061334;28;20212;-69
2021/09/03 11:34:54;;;;;;;4.50;4.10;;;24.80;64.80;;;;;;5065075;28;20204;-70
2021/09/03 11:37:24;;;;;;;4.20;3.80;;;25.30;64.10;;;;;;5063845;28;20276;-69
2021/09/03 11:39:51;;;;;;;3.97;3.60;;;25.40;63.30;;;;;;5048359;28;20442;-69
2021/09/03 11:42:20;;;;;;;4.65;4.25;;;25.50;63.50;;;;;;5067659;28;20193;-70
2021/09/03 11:44:57;;;;;;;4.65;4.25;;;25.40;63.40;;;;;;5064464;28;20747;-70
2021/09/03 11:47:31;;;;;;;7.80;5.28;;;25.50;63.20;;;;;;5067306;28;20197;-70
2021/09/03 11:49:59;;;;;;;5.57;4.88;;;25.60;62.50;;;;;;5062413;28;20621;-70
2021/09/03 11:52:28;;;;;;;5.75;4.70;;;25.30;62.50;;;;;;5063617;28;20220;-70
2021/09/03 11:54:55;;;;;;;6.85;5.20;;;25.10;62.60;;;;;;5066829;28;20189;-71
2021/09/03 11:57:23;;;;;;;8.60;5.25;;;24.90;63.00;;;;;;5058861;28;20669;-70
2021/09/03 11:59:58;;;;;;;8.25;5.32;;;24.90;63.50;;;;;;5066624;28;20193;-70
2021/09/03 12:02:26;;;;;;;5.25;4.70;;;24.90;63.50;;;;;;5068613;28;20826;-70
2021/09/03 12:04:55;;;;;;;5.65;4.20;;;25.00;63.40;;;;;;5061683;28;20645;-71
2021/09/03 12:07:23;;;;;;;5.03;4.28;;;25.10;63.60;;;;;;5055659;28;20531;-71
2021/09/03 12:09:56;;;;;;;5.78;4.90;;;25.00;63.60;;;;;;5064314;28;20283;-71
2021/09/03 12:12:28;;;;;;;7.70;5.43;;;25.10;63.20;;;;;;5059012;28;20205;-71
2021/09/03 12:14:58;;;;;;;7.55;5.22;;;25.10;63.20;;;;;;5051281;28;20661;-71
2021/09/03 12:17:40;;;;;;;6.38;4.78;;;25.20;63.00;;;;;;5068531;28;20194;-71
2021/09/03 12:20:12;;;;;;;7.18;4.95;;;25.10;62.70;;;;;;5080719;28;20649;-71
2021/09/03 12:22:50;;;;;;;5.85;4.35;;;25.10;62.90;;;;;;5054120;28;20198;-71
2021/09/03 12:25:17;;;;;;;6.40;5.45;;;24.90;63.10;;;;;;5079295;28;20654;-71
2021/09/03 12:27:59;;;;;;;7.03;5.28;;;24.80;63.50;;;;;;5060046;28;20201;-70
2021/09/03 12:30:28;;;;;;;7.43;5.07;;;24.80;63.70;;;;;;5066322;28;20541;-71
2021/09/03 12:32:55;;;;;;;7.30;5.20;;;24.60;64.00;;;;;;5062974;28;20943;-70
2021/09/03 12:35:22;;;;;;;7.25;5.22;;;24.30;64.50;;;;;;5067164;28;20189;-70
2021/09/03 12:37:58;;;;;;;10.00;5.20;;;24.10;65.20;;;;;;5063932;28;20299;-71
2021/09/03 12:40:25;;;;;;;10.20;5.90;;;23.90;65.80;;;;;;5065712;28;20277;-72
2021/09/03 12:42:52;;;;;;;8.50;5.70;;;23.80;66.50;;;;;;5061318;28;20212;-71
2021/09/03 12:45:19;;;;;;;10.85;6.32;;;23.50;66.70;;;;;;5061800;28;20225;-70
2021/09/03 12:48:06;;;;;;;15.98;6.18;;;23.20;67.30;;;;;;5059592;28;20620;-71
2021/09/03 12:50:33;;;;;;;8.30;5.97;;;22.80;67.80;;;;;;5055317;28;20455;-71
2021/09/03 12:53:00;;;;;;;10.10;5.97;;;22.60;68.50;;;;;;5064984;28;20254;-71
2021/09/03 12:55:27;;;;;;;6.47;5.30;;;22.50;68.80;;;;;;5054264;28;20205;-71
2021/09/03 12:57:54;;;;;;;7.88;5.85;;;22.40;69.10;;;;;;5058166;28;20197;-71
2021/09/03 13:00:21;;;;;;;9.77;6.10;;;22.30;69.20;;;;;;5065025;28;20205;-71